createdAt,value
2022-08-02T00:01:03.945Z,18.85
2022-08-02T00:03:32.690Z,18.78
2022-08-02T00:06:03.105Z,18.71
2022-08-02T00:08:31.874Z,18.66
2022-08-02T00:11:00.282Z,18.61
2022-08-02T00:13:28.707Z,18.55
2022-08-02T00:15:56.849Z,18.48
2022-08-02T00:18:25.280Z,18.37
2022-08-02T00:20:54.047Z,18.33
2022-08-02T00:23:23.788Z,18.33
2022-08-02T00:25:55.053Z,18.27
2022-08-02T00:28:27.795Z,18.23
2022-08-02T00:30:57.114Z,18.21
2022-08-02T00:34:05.211Z,18.18
2022-08-02T00:36:14.513Z,18.19
2022-08-02T00:38:44.526Z,18.26
2022-08-02T00:41:13.935Z,18.31
2022-08-02T00:43:42.582Z,18.32
2022-08-02T00:46:11.094Z,18.29
2022-08-02T00:48:41.442Z,18.38
2022-08-02T00:51:12.003Z,18.28
2022-08-02T00:53:40.335Z,18.27
2022-08-02T00:56:10.244Z,18.26
2022-08-02T00:58:39.117Z,18.24
2022-08-02T01:01:08.455Z,18.37
2022-08-02T01:03:36.846Z,18.36
2022-08-02T01:06:13.399Z,18.39
2022-08-02T01:08:41.897Z,18.41
2022-08-02T01:11:13.866Z,18.43
2022-08-02T01:13:42.501Z,18.45
2022-08-02T01:16:13.208Z,18.47
2022-08-02T01:18:43.237Z,18.44
2022-08-02T01:21:21.319Z,18.39
2022-08-02T01:23:56.403Z,18.36
2022-08-02T01:26:38.772Z,18.33
2022-08-02T01:29:11.681Z,18.30
2022-08-02T01:31:42.145Z,18.29
2022-08-02T01:34:13.369Z,18.25
2022-08-02T01:36:44.234Z,18.20
2022-08-02T01:39:26.820Z,18.18
2022-08-02T01:42:02.058Z,18.12
2022-08-02T01:44:33.215Z,18.06
2022-08-02T01:47:05.585Z,18.03
2022-08-02T01:49:34.718Z,18.00
2022-08-02T01:52:21.950Z,17.96
2022-08-02T01:54:52.204Z,17.91
2022-08-02T01:57:22.902Z,17.80
2022-08-02T01:59:52.863Z,17.74
2022-08-02T02:02:22.328Z,17.65
2022-08-02T02:04:51.501Z,17.60
2022-08-02T02:07:21.414Z,17.55
2022-08-02T02:09:51.037Z,17.70
2022-08-02T02:12:20.558Z,17.56
2022-08-02T02:14:51.705Z,17.56
2022-08-02T02:17:52.667Z,17.57
2022-08-02T02:20:15.158Z,17.50
2022-08-02T02:22:43.455Z,17.42
2022-08-02T02:25:12.872Z,17.41
2022-08-02T02:27:46.846Z,17.39
2022-08-02T02:30:15.762Z,17.40
2022-08-02T02:32:47.016Z,17.39
2022-08-02T02:35:17.765Z,17.46
2022-08-02T02:37:46.940Z,17.50
2022-08-02T02:40:16.709Z,17.52
2022-08-02T02:42:49.223Z,17.57
2022-08-02T02:45:19.571Z,17.53
2022-08-02T02:47:50.691Z,17.54
2022-08-02T02:50:19.419Z,17.57
2022-08-02T02:52:48.697Z,17.63
2022-08-02T02:55:18.687Z,17.64
2022-08-02T02:57:47.685Z,17.61
2022-08-02T03:00:16.898Z,17.58
2022-08-02T03:02:46.341Z,17.61
2022-08-02T03:05:18.419Z,17.61
2022-08-02T03:07:46.704Z,17.59
2022-08-02T03:10:14.829Z,17.61
2022-08-02T03:12:46.247Z,17.65
2022-08-02T03:15:15.374Z,17.68
2022-08-02T03:17:44.570Z,17.66
2022-08-02T03:20:14.328Z,17.66
2022-08-02T03:22:44.861Z,17.69
2022-08-02T03:25:14.240Z,17.68
2022-08-02T03:27:43.330Z,17.70
2022-08-02T03:30:12.813Z,17.69
2022-08-02T03:32:43.029Z,17.68
2022-08-02T03:35:12.522Z,17.65
2022-08-02T03:37:41.621Z,17.68
2022-08-02T03:40:12.807Z,17.74
2022-08-02T03:42:42.555Z,17.79
2022-08-02T03:45:14.001Z,17.81
2022-08-02T03:47:43.227Z,17.85
2022-08-02T03:50:12.971Z,17.91
2022-08-02T03:52:43.126Z,17.96
2022-08-02T03:55:14.084Z,17.96
2022-08-02T03:57:42.916Z,17.98
2022-08-02T04:00:13.294Z,17.99
2022-08-02T04:02:43.109Z,17.99
2022-08-02T04:05:11.700Z,18.02
2022-08-02T04:08:33.817Z,18.05
2022-08-02T04:10:30.354Z,18.15
2022-08-02T04:12:59.360Z,18.21
2022-08-02T04:15:28.287Z,18.27
2022-08-02T04:17:58.042Z,18.33
2022-08-02T04:20:29.658Z,18.33
2022-08-02T04:23:00.357Z,18.34
2022-08-02T04:25:34.317Z,18.35
2022-08-02T04:28:17.123Z,18.40
2022-08-02T04:30:47.942Z,18.37
2022-08-02T04:33:16.915Z,18.38
2022-08-02T04:35:45.715Z,18.39
2022-08-02T04:38:15.907Z,18.42
2022-08-02T04:40:52.485Z,18.46
2022-08-02T04:43:23.274Z,18.52
2022-08-02T04:45:53.789Z,18.55
2022-08-02T04:48:22.602Z,18.60
2022-08-02T04:50:51.734Z,18.61
2022-08-02T04:53:20.717Z,18.65
2022-08-02T04:55:49.513Z,18.76
2022-08-02T04:58:39.278Z,18.70
2022-08-02T05:01:07.711Z,18.74
2022-08-02T05:03:36.285Z,18.73
2022-08-02T05:06:04.438Z,18.75
2022-08-02T05:08:53.249Z,18.77
2022-08-02T05:11:30.003Z,18.78
2022-08-02T05:14:04.815Z,18.79
2022-08-02T05:16:35.463Z,18.78
2022-08-02T05:19:04.476Z,18.79
2022-08-02T05:21:32.939Z,18.80
2022-08-02T05:24:01.550Z,18.80
2022-08-02T05:26:30.267Z,18.77
2022-08-02T05:28:58.723Z,18.76
2022-08-02T05:31:27.167Z,18.76
2022-08-02T05:33:56.929Z,18.78
2022-08-02T05:36:25.451Z,18.82
2022-08-02T05:38:59.722Z,18.88
2022-08-02T05:41:33.679Z,18.92
2022-08-02T05:44:01.923Z,18.99
2022-08-02T05:46:30.335Z,19.13
2022-08-02T05:49:01.663Z,19.25
2022-08-02T05:51:32.481Z,19.46
2022-08-02T05:54:04.451Z,19.58
2022-08-02T05:56:34.561Z,19.73
2022-08-02T05:59:05.544Z,19.88
2022-08-02T06:01:37.338Z,20.15
2022-08-02T06:04:09.175Z,20.50
2022-08-02T06:06:38.638Z,20.74
2022-08-02T06:09:10.611Z,20.89
2022-08-02T06:11:41.450Z,20.95
2022-08-02T06:14:33.023Z,21.05
2022-08-02T06:17:02.516Z,21.12
2022-08-02T06:19:46.919Z,21.15
2022-08-02T06:22:42.029Z,21.20
2022-08-02T06:25:11.698Z,21.18
2022-08-02T06:27:59.969Z,21.09
2022-08-02T06:30:29.658Z,21.11
2022-08-02T06:32:58.632Z,21.10
2022-08-02T06:35:34.925Z,21.12
2022-08-02T06:38:04.287Z,21.22
2022-08-02T06:40:37.393Z,21.36
2022-08-02T06:43:13.507Z,21.50
2022-08-02T06:45:42.762Z,21.80
2022-08-02T06:48:11.487Z,22.03
2022-08-02T06:50:42.348Z,22.21
2022-08-02T06:53:11.830Z,22.35
2022-08-02T06:55:43.647Z,22.50
2022-08-02T06:58:13.129Z,22.68
2022-08-02T07:00:42.138Z,22.84
2022-08-02T07:03:10.982Z,22.94
2022-08-02T07:05:39.298Z,23.00
2022-08-02T07:08:09.254Z,22.98
2022-08-02T07:10:37.545Z,22.96
2022-08-02T07:13:06.176Z,22.84
2022-08-02T07:15:38.410Z,22.73
2022-08-02T07:18:07.245Z,22.59
2022-08-02T07:20:35.892Z,22.43
2022-08-02T07:23:04.234Z,22.27
2022-08-02T07:26:02.581Z,22.16
2022-08-02T07:28:24.724Z,22.00
2022-08-02T07:30:53.908Z,21.86
2022-08-02T07:33:38.833Z,21.74
2022-08-02T07:36:22.470Z,21.65
2022-08-02T07:38:51.439Z,21.58
2022-08-02T07:41:23.635Z,21.55
2022-08-02T07:43:52.060Z,21.49
2022-08-02T07:46:21.025Z,21.43
2022-08-02T07:48:50.070Z,21.37
2022-08-02T07:51:19.050Z,21.27
2022-08-02T07:53:51.214Z,21.15
2022-08-02T07:56:20.415Z,21.06
2022-08-02T07:58:50.483Z,21.02
2022-08-02T08:01:21.576Z,21.07
2022-08-02T08:03:50.844Z,21.08
2022-08-02T08:06:19.544Z,21.14
2022-08-02T08:08:57.852Z,21.25
2022-08-02T08:11:26.642Z,21.36
2022-08-02T08:13:56.384Z,21.47
2022-08-02T08:16:26.719Z,21.60
2022-08-02T08:18:55.495Z,21.77
2022-08-02T08:21:24.337Z,21.85
2022-08-02T08:23:53.015Z,21.92
2022-08-02T08:26:21.502Z,21.97
2022-08-02T08:28:49.819Z,22.05
2022-08-02T08:31:20.826Z,22.13
2022-08-02T08:33:49.548Z,22.21
2022-08-02T08:36:18.047Z,22.38
2022-08-02T08:38:46.651Z,22.57
2022-08-02T08:41:16.947Z,22.98
2022-08-02T08:43:48.042Z,23.20
2022-08-02T08:46:25.796Z,23.49
2022-08-02T08:49:00.532Z,23.87
2022-08-02T08:51:32.219Z,24.14
2022-08-02T08:54:04.023Z,24.46
2022-08-02T08:56:34.241Z,24.74
2022-08-02T08:59:03.405Z,24.98
2022-08-02T09:01:49.369Z,25.09
2022-08-02T09:04:19.397Z,25.07
2022-08-02T09:06:48.057Z,24.87
2022-08-02T09:09:16.641Z,24.77
2022-08-02T09:11:44.798Z,24.83
2022-08-02T09:14:26.599Z,24.91
2022-08-02T09:17:07.287Z,24.99
2022-08-02T09:19:37.173Z,25.09
2022-08-02T09:22:08.080Z,25.10
2022-08-02T09:24:43.589Z,25.21
2022-08-02T09:27:12.982Z,25.28
2022-08-02T09:30:05.994Z,25.39
2022-08-02T09:32:34.811Z,25.49
2022-08-02T09:35:03.355Z,25.53
2022-08-02T09:37:32.512Z,25.63
2022-08-02T09:40:02.996Z,25.67
2022-08-02T09:42:31.537Z,25.73
2022-08-02T09:45:01.766Z,25.87
2022-08-02T09:47:31.467Z,26.00
2022-08-02T09:50:01.572Z,25.98
2022-08-02T09:52:42.926Z,25.92
2022-08-02T09:55:13.633Z,26.04
2022-08-02T09:57:42.090Z,26.35
2022-08-02T10:00:23.269Z,26.68
2022-08-02T10:03:14.849Z,26.96
2022-08-02T10:05:55.933Z,27.24
2022-08-02T10:08:33.681Z,27.43
2022-08-02T10:11:03.945Z,27.57
2022-08-02T10:13:36.143Z,27.78
2022-08-02T10:16:06.491Z,28.14
2022-08-02T10:18:39.259Z,28.24
2022-08-02T10:21:13.371Z,28.01
2022-08-02T10:23:44.110Z,28.14
2022-08-02T10:26:16.023Z,28.27
2022-08-02T10:28:47.235Z,28.31
2022-08-02T10:31:19.650Z,28.44
2022-08-02T10:33:50.428Z,28.51
2022-08-02T10:36:21.564Z,28.74
2022-08-02T10:38:51.484Z,28.82
2022-08-02T10:41:34.924Z,28.93
2022-08-02T10:44:03.513Z,29.12
2022-08-02T10:46:33.670Z,29.20
2022-08-02T10:49:37.547Z,29.26
2022-08-02T10:52:06.804Z,29.49
2022-08-02T10:54:36.565Z,29.54
2022-08-02T10:57:05.799Z,29.21
2022-08-02T10:59:36.306Z,28.71
2022-08-02T11:02:06.178Z,28.52
2022-08-02T11:04:54.506Z,28.48
2022-08-02T11:07:33.325Z,28.55
2022-08-02T11:10:21.825Z,28.57
2022-08-02T11:13:00.186Z,28.60
2022-08-02T11:15:28.892Z,28.49
2022-08-02T11:17:59.158Z,28.46
2022-08-02T11:20:28.501Z,28.39
2022-08-02T11:23:18.761Z,28.18
2022-08-02T11:26:03.710Z,27.82
2022-08-02T11:28:39.571Z,27.47
2022-08-02T11:31:07.929Z,27.35
2022-08-02T11:33:37.364Z,27.36
2022-08-02T11:36:07.266Z,27.24
2022-08-02T11:38:37.118Z,27.15
2022-08-02T11:41:06.093Z,27.09
2022-08-02T11:43:38.809Z,27.10
2022-08-02T11:46:13.688Z,27.17
2022-08-02T11:48:42.504Z,27.25
2022-08-02T11:51:14.531Z,27.10
2022-08-02T11:53:49.508Z,26.98
2022-08-02T11:56:24.878Z,27.02
2022-08-02T11:59:04.200Z,27.21
2022-08-02T12:01:44.882Z,27.47
2022-08-02T12:04:17.320Z,27.81
2022-08-02T12:06:56.232Z,28.10
2022-08-02T12:09:27.597Z,28.15
2022-08-02T12:11:56.490Z,28.17
2022-08-02T12:14:26.884Z,28.23
2022-08-02T12:17:12.721Z,28.23
2022-08-02T12:19:43.029Z,28.27
2022-08-02T12:22:15.094Z,28.51
2022-08-02T12:24:47.461Z,28.78
2022-08-02T12:27:37.976Z,29.18
2022-08-02T12:30:07.940Z,29.08
2022-08-02T12:32:36.768Z,28.68
2022-08-02T12:35:06.927Z,28.71
2022-08-02T12:37:35.756Z,28.93
2022-08-02T12:40:25.533Z,29.18
2022-08-02T12:42:55.864Z,29.15
2022-08-02T12:45:24.758Z,28.72
2022-08-02T12:47:54.405Z,28.27
2022-08-02T12:50:26.160Z,28.02
2022-08-02T12:53:04.758Z,28.12
2022-08-02T12:55:59.211Z,28.28
2022-08-02T12:58:29.579Z,28.38
2022-08-02T13:00:59.962Z,28.60
2022-08-02T13:04:11.577Z,28.77
2022-08-02T13:06:43.293Z,28.76
2022-08-02T13:09:13.959Z,28.66
2022-08-02T13:11:46.817Z,28.68
2022-08-02T13:14:16.093Z,28.79
2022-08-02T13:16:46.258Z,28.85
2022-08-02T13:19:15.842Z,28.81
2022-08-02T13:22:01.147Z,28.69
2022-08-02T13:24:38.156Z,28.54
2022-08-02T13:27:11.898Z,28.35
2022-08-02T13:29:40.220Z,28.10
2022-08-02T13:32:08.871Z,27.81
2022-08-02T13:34:37.919Z,27.52
2022-08-02T13:37:07.705Z,27.30
2022-08-02T13:39:36.039Z,27.13
2022-08-02T13:42:05.877Z,26.98
2022-08-02T13:44:36.559Z,26.83
2022-08-02T13:47:05.830Z,26.72
2022-08-02T13:49:51.483Z,26.68
2022-08-02T13:52:23.362Z,26.64
2022-08-02T13:54:52.320Z,26.61
2022-08-02T13:57:21.081Z,26.61
2022-08-02T13:59:56.788Z,26.62
2022-08-02T14:02:28.275Z,26.60
2022-08-02T14:04:57.106Z,26.56
2022-08-02T14:07:25.763Z,26.53
2022-08-02T14:09:54.287Z,26.55
2022-08-02T14:12:23.153Z,26.49
2022-08-02T14:14:53.029Z,26.44
2022-08-02T14:17:21.353Z,26.47
2022-08-02T14:19:51.055Z,26.42
2022-08-02T14:22:19.200Z,26.46
2022-08-02T14:24:47.922Z,26.46
2022-08-02T14:27:16.844Z,26.39
2022-08-02T14:29:45.249Z,26.34
2022-08-02T14:32:15.368Z,26.30
2022-08-02T14:34:44.477Z,26.35
2022-08-02T14:37:12.785Z,26.41
2022-08-02T14:39:43.269Z,26.41
2022-08-02T14:42:29.343Z,26.41
2022-08-02T14:44:57.576Z,26.43
2022-08-02T14:47:27.669Z,26.39
2022-08-02T14:49:56.474Z,26.34
2022-08-02T14:52:24.758Z,26.26
2022-08-02T14:54:53.089Z,26.19
2022-08-02T14:57:22.019Z,26.12
2022-08-02T14:59:52.326Z,26.03
2022-08-02T15:02:24.142Z,25.99
2022-08-02T15:04:54.263Z,25.93
2022-08-02T15:07:23.765Z,25.89
2022-08-02T15:09:52.011Z,25.85
2022-08-02T15:12:20.671Z,25.84
2022-08-02T15:14:48.865Z,25.86
2022-08-02T15:17:17.346Z,25.80
2022-08-02T15:19:57.609Z,25.76
2022-08-02T15:22:31.094Z,25.68
2022-08-02T15:25:00.492Z,25.62
2022-08-02T15:27:28.814Z,25.60
2022-08-02T15:30:00.936Z,25.61
2022-08-02T15:32:29.496Z,25.60
2022-08-02T15:34:57.676Z,25.58
2022-08-02T15:37:26.237Z,25.56
2022-08-02T15:40:00.954Z,25.52
2022-08-02T15:42:30.668Z,25.50
2022-08-02T15:44:59.667Z,25.51
2022-08-02T15:47:28.761Z,25.54
2022-08-02T15:49:58.423Z,25.56
2022-08-02T15:52:27.198Z,25.59
2022-08-02T15:54:55.575Z,25.59
2022-08-02T15:57:25.378Z,25.59
2022-08-02T15:59:54.457Z,25.61
2022-08-02T16:02:22.999Z,25.66
2022-08-02T16:04:51.467Z,25.73
2022-08-02T16:07:20.546Z,25.86
2022-08-02T16:09:49.039Z,25.95
2022-08-02T16:12:17.621Z,25.91
2022-08-02T16:14:47.792Z,25.89
2022-08-02T16:17:48.976Z,25.89
2022-08-02T16:20:05.564Z,25.90
2022-08-02T16:22:34.225Z,25.88
2022-08-02T16:25:02.279Z,25.90
2022-08-02T16:27:30.559Z,25.88
2022-08-02T16:30:00.466Z,25.77
2022-08-02T16:32:29.067Z,25.74
2022-08-02T16:35:08.192Z,25.69
2022-08-02T16:37:51.781Z,25.64
2022-08-02T16:40:21.612Z,25.59
2022-08-02T16:42:50.684Z,25.53
2022-08-02T16:45:22.569Z,25.49
2022-08-02T16:47:56.414Z,25.47
2022-08-02T16:50:28.752Z,25.46
2022-08-02T16:52:57.976Z,25.44
2022-08-02T16:55:29.045Z,25.42
2022-08-02T16:57:58.917Z,25.34
2022-08-02T17:00:29.136Z,25.23
2022-08-02T17:02:59.593Z,25.16
2022-08-02T17:05:55.871Z,25.09
2022-08-02T17:08:32.212Z,25.04
2022-08-02T17:11:03.362Z,24.98
2022-08-02T17:13:32.343Z,24.95
2022-08-02T17:16:25.854Z,24.83
2022-08-02T17:18:54.099Z,24.73
2022-08-02T17:21:22.616Z,24.65
2022-08-02T17:24:06.118Z,24.53
2022-08-02T17:26:37.546Z,24.40
2022-08-02T17:29:15.597Z,24.30
2022-08-02T17:32:12.532Z,24.21
2022-08-02T17:34:37.195Z,24.10
2022-08-02T17:37:06.447Z,24.03
2022-08-02T17:39:43.231Z,23.95
2022-08-02T17:42:19.546Z,23.87
2022-08-02T17:47:42.109Z,23.67
2022-08-02T17:50:12.560Z,23.56
2022-08-02T17:55:31.222Z,23.38
2022-08-02T18:00:47.629Z,23.13
2022-08-02T18:03:19.674Z,23.02
2022-08-02T18:05:55.210Z,22.91
2022-08-02T18:08:24.123Z,22.79
2022-08-02T18:10:53.060Z,22.72
2022-08-02T18:13:21.272Z,22.66
2022-08-02T18:15:49.903Z,22.60
2022-08-02T18:18:29.185Z,22.54
2022-08-02T18:21:14.498Z,22.51
2022-08-02T18:23:48.689Z,22.45
2022-08-02T18:26:18.107Z,22.36
2022-08-02T18:28:49.662Z,22.27
2022-08-02T18:31:22.573Z,22.15
2022-08-02T18:34:00.062Z,22.05
2022-08-02T18:36:47.419Z,21.99
2022-08-02T18:39:15.961Z,21.99
2022-08-02T18:41:45.259Z,21.91
2022-08-02T18:44:16.789Z,21.79
2022-08-02T18:46:49.381Z,21.67
2022-08-02T18:49:20.953Z,21.60
2022-08-02T18:51:49.427Z,21.51
2022-08-02T18:54:26.735Z,21.47
2022-08-02T18:56:59.510Z,21.45
2022-08-02T18:59:28.055Z,21.39
2022-08-02T19:02:05.158Z,21.35
2022-08-02T19:04:34.825Z,21.33
2022-08-02T19:07:07.543Z,21.34
2022-08-02T19:09:36.614Z,21.31
2022-08-02T19:12:09.511Z,21.23
2022-08-02T19:14:38.797Z,21.18
2022-08-02T19:17:15.957Z,21.15
2022-08-02T19:19:56.702Z,21.12
2022-08-02T19:22:25.537Z,21.07
2022-08-02T19:24:59.986Z,21.01
2022-08-02T19:27:32.683Z,20.91
2022-08-02T19:30:02.532Z,20.80
2022-08-02T19:32:39.624Z,20.69
2022-08-02T19:35:19.726Z,20.57
2022-08-02T19:37:59.585Z,20.46
2022-08-02T19:40:28.984Z,20.34
2022-08-02T19:44:23.831Z,20.26
2022-08-02T19:45:51.183Z,20.19
2022-08-02T19:48:24.036Z,20.14
2022-08-02T19:51:00.507Z,20.09
2022-08-02T19:53:46.711Z,20.04
2022-08-02T19:56:20.903Z,20.03
2022-08-02T19:58:51.568Z,19.99
2022-08-02T20:01:25.310Z,19.91
2022-08-02T20:03:57.117Z,19.87
2022-08-02T20:06:30.009Z,19.82
2022-08-02T20:09:01.141Z,19.76
2022-08-02T20:11:34.609Z,19.74
2022-08-02T20:14:04.074Z,19.71
2022-08-02T20:16:32.945Z,19.69
2022-08-02T20:19:01.763Z,19.67
2022-08-02T20:21:36.244Z,19.65
2022-08-02T20:24:07.008Z,19.61
2022-08-02T20:26:38.218Z,19.58
2022-08-02T20:29:07.694Z,19.59
2022-08-02T20:31:36.456Z,19.52
2022-08-02T20:36:55.949Z,19.45
2022-08-02T20:39:42.875Z,19.38
2022-08-02T20:42:23.921Z,19.34
2022-08-02T20:44:54.747Z,19.32
2022-08-02T20:47:27.476Z,19.28
2022-08-02T20:50:14.244Z,19.22
2022-08-02T20:52:47.823Z,19.19
2022-08-02T20:55:17.130Z,19.13
2022-08-02T20:57:59.902Z,19.05
2022-08-02T21:00:29.066Z,19.00
2022-08-02T21:02:57.259Z,19.01
2022-08-02T21:08:15.589Z,18.96
2022-08-02T21:10:51.725Z,18.91
2022-08-02T21:13:24.238Z,18.86
2022-08-02T21:18:43.046Z,18.85
2022-08-02T21:21:11.500Z,18.85
2022-08-02T21:23:49.033Z,18.82
2022-08-02T21:26:28.406Z,18.78
2022-08-02T21:29:00.781Z,18.75
2022-08-02T21:31:32.069Z,18.73
2022-08-02T21:34:01.944Z,18.72
2022-08-02T21:36:32.569Z,18.71
2022-08-02T21:39:04.997Z,18.71
2022-08-02T21:41:39.374Z,18.68
2022-08-02T21:44:15.864Z,18.68
2022-08-02T21:46:49.229Z,18.64
2022-08-02T21:49:18.434Z,18.61
2022-08-02T21:51:49.575Z,18.55
2022-08-02T21:54:21.666Z,18.48
2022-08-02T21:56:52.161Z,18.41
2022-08-02T21:59:25.622Z,18.37
2022-08-02T22:04:47.816Z,18.30
2022-08-02T22:07:17.238Z,18.32
2022-08-02T22:09:47.029Z,18.29
2022-08-02T22:12:18.359Z,18.25
2022-08-02T22:14:54.088Z,18.21
2022-08-02T22:17:51.574Z,18.16
2022-08-02T22:20:13.706Z,18.18
2022-08-02T22:22:42.198Z,18.12
2022-08-02T22:25:27.154Z,18.10
2022-08-02T22:28:35.533Z,18.05
2022-08-02T22:30:52.462Z,17.97
2022-08-02T22:33:42.341Z,17.93
2022-08-02T22:36:16.352Z,17.95
2022-08-02T22:38:45.815Z,17.95
2022-08-02T22:41:16.519Z,17.94
2022-08-02T22:43:44.761Z,17.88
2022-08-02T22:46:15.404Z,17.81
2022-08-02T22:48:45.294Z,17.75
2022-08-02T22:51:14.551Z,17.70
2022-08-02T22:53:43.520Z,17.68
2022-08-02T22:56:12.582Z,17.70
2022-08-02T22:58:41.050Z,23.47
2022-08-02T22:58:41.286Z,23.26
2022-08-02T22:58:50.219Z,23.79
2022-08-02T22:58:55.697Z,19.52
2022-08-02T22:58:56.965Z,19.00
2022-08-02T22:59:10.425Z,17.70
2022-08-02T22:59:12.093Z,18.33
2022-08-02T22:59:12.330Z,18.88
2022-08-02T23:01:30.502Z,17.71
2022-08-02T23:03:58.616Z,17.71
2022-08-02T23:06:26.730Z,17.67
2022-08-02T23:08:55.328Z,17.62
2022-08-02T23:11:24.304Z,17.55
2022-08-02T23:13:54.149Z,17.52
2022-08-02T23:16:39.881Z,17.51
2022-08-02T23:19:25.846Z,17.44
2022-08-02T23:22:01.348Z,17.42
2022-08-02T23:24:33.370Z,17.37
2022-08-02T23:27:02.145Z,17.37
2022-08-02T23:29:32.089Z,17.37
2022-08-02T23:32:00.731Z,17.34
2022-08-02T23:34:29.284Z,17.32
2022-08-02T23:36:57.562Z,17.27
2022-08-02T23:39:26.240Z,17.26
2022-08-02T23:41:55.610Z,17.24
2022-08-02T23:44:24.436Z,17.20
2022-08-02T23:46:54.669Z,17.24
2022-08-02T23:49:23.563Z,17.17
2022-08-02T23:51:52.701Z,17.19
2022-08-02T23:54:21.405Z,17.17
2022-08-02T23:56:49.687Z,17.17
2022-08-02T23:59:17.858Z,17.20
